sensor_id;sensor_type;location;lat;lon;timestamp;pressure;altitude;pressure_sealevel;temperature;humidity
10261;BME280;5175;42.606;23.388;2022-12-17T00:02:04;93491.72;;;8.17;100.00
10261;BME280;5175;42.606;23.388;2022-12-17T00:04:48;93486.13;;;8.24;100.00
10261;BME280;5175;42.606;23.388;2022-12-17T00:07:47;93490.09;;;8.26;100.00
10261;BME280;5175;42.606;23.388;2022-12-17T00:10:32;93486.88;;;8.44;100.00
10261;BME280;5175;42.606;23.388;2022-12-17T00:13:18;93495.84;;;8.58;100.00
10261;BME280;5175;42.606;23.388;2022-12-17T00:16:03;93486.00;;;8.59;100.00
10261;BME280;5175;42.606;23.388;2022-12-17T00:18:48;93470.88;;;8.54;100.00
10261;BME280;5175;42.606;23.388;2022-12-17T00:21:38;93475.94;;;8.51;100.00
10261;BME280;5175;42.606;23.388;2022-12-17T00:24:22;93476.75;;;8.51;100.00
10261;BME280;5175;42.606;23.388;2022-12-17T00:27:08;93470.16;;;8.39;100.00
10261;BME280;5175;42.606;23.388;2022-12-17T00:29:52;93463.78;;;8.35;100.00
10261;BME280;5175;42.606;23.388;2022-12-17T00:32:37;93473.59;;;8.39;100.00
10261;BME280;5175;42.606;23.388;2022-12-17T00:35:21;93467.78;;;8.17;100.00
10261;BME280;5175;42.606;23.388;2022-12-17T00:38:06;93476.31;;;8.19;100.00
10261;BME280;5175;42.606;23.388;2022-12-17T00:40:50;93478.25;;;7.93;100.00
10261;BME280;5175;42.606;23.388;2022-12-17T00:43:36;93482.75;;;7.88;100.00
10261;BME280;5175;42.606;23.388;2022-12-17T00:46:21;93481.97;;;7.77;100.00
10261;BME280;5175;42.606;23.388;2022-12-17T00:49:05;93482.53;;;7.64;100.00
10261;BME280;5175;42.606;23.388;2022-12-17T00:51:50;93471.63;;;7.61;100.00
10261;BME280;5175;42.606;23.388;2022-12-17T00:54:34;93477.22;;;7.49;100.00
10261;BME280;5175;42.606;23.388;2022-12-17T00:57:21;93457.06;;;7.33;100.00
10261;BME280;5175;42.606;23.388;2022-12-17T01:00:08;93457.59;;;7.35;100.00
10261;BME280;5175;42.606;23.388;2022-12-17T01:02:52;93451.22;;;7.36;100.00
10261;BME280;5175;42.606;23.388;2022-12-17T01:05:37;93461.56;;;7.42;100.00
10261;BME280;5175;42.606;23.388;2022-12-17T01:08:21;93470.84;;;7.25;100.00
10261;BME280;5175;42.606;23.388;2022-12-17T01:11:07;93464.50;;;7.21;100.00
10261;BME280;5175;42.606;23.388;2022-12-17T01:13:52;93467.69;;;7.18;100.00
10261;BME280;5175;42.606;23.388;2022-12-17T01:16:38;93458.13;;;7.27;100.00
10261;BME280;5175;42.606;23.388;2022-12-17T01:19:22;93470.56;;;6.96;100.00
10261;BME280;5175;42.606;23.388;2022-12-17T01:22:06;93467.16;;;7.01;100.00
10261;BME280;5175;42.606;23.388;2022-12-17T01:24:47;93459.97;;;6.96;100.00
10261;BME280;5175;42.606;23.388;2022-12-17T01:27:32;93473.22;;;6.91;100.00
10261;BME280;5175;42.606;23.388;2022-12-17T01:30:16;93482.50;;;6.93;100.00
10261;BME280;5175;42.606;23.388;2022-12-17T01:33:03;93452.78;;;6.81;100.00
10261;BME280;5175;42.606;23.388;2022-12-17T01:35:48;93467.91;;;6.96;100.00
10261;BME280;5175;42.606;23.388;2022-12-17T01:38:32;93478.00;;;6.94;100.00
10261;BME280;5175;42.606;23.388;2022-12-17T01:41:17;93473.50;;;7.00;100.00
10261;BME280;5175;42.606;23.388;2022-12-17T01:47:38;93474.81;;;6.97;100.00
10261;BME280;5175;42.606;23.388;2022-12-17T01:50:26;93474.84;;;7.07;100.00
10261;BME280;5175;42.606;23.388;2022-12-17T01:53:08;93473.50;;;7.00;100.00
10261;BME280;5175;42.606;23.388;2022-12-17T01:55:53;93494.22;;;7.23;100.00
10261;BME280;5175;42.606;23.388;2022-12-17T01:58:38;93502.44;;;7.16;100.00
10261;BME280;5175;42.606;23.388;2022-12-17T02:01:22;93508.00;;;7.15;100.00
10261;BME280;5175;42.606;23.388;2022-12-17T02:04:07;93496.34;;;7.26;100.00
10261;BME280;5175;42.606;23.388;2022-12-17T02:07:01;93468.72;;;7.02;100.00
10261;BME280;5175;42.606;23.388;2022-12-17T02:09:56;93452.78;;;6.81;100.00
10261;BME280;5175;42.606;23.388;2022-12-17T02:12:46;93475.88;;;6.91;100.00
10261;BME280;5175;42.606;23.388;2022-12-17T02:15:36;93469.78;;;6.85;100.00
10261;BME280;5175;42.606;23.388;2022-12-17T02:18:26;93462.59;;;7.01;100.00
10261;BME280;5175;42.606;23.388;2022-12-17T02:21:12;93457.06;;;7.03;100.00
10261;BME280;5175;42.606;23.388;2022-12-17T02:24:06;93453.31;;;6.99;100.00
10261;BME280;5175;42.606;23.388;2022-12-17T02:26:56;93443.28;;;6.96;100.00
10261;BME280;5175;42.606;23.388;2022-12-17T02:29:45;93450.44;;;7.00;100.00
10261;BME280;5175;42.606;23.388;2022-12-17T02:32:33;93439.53;;;7.02;100.00
10261;BME280;5175;42.606;23.388;2022-12-17T02:35:21;93462.09;;;7.14;100.00
10261;BME280;5175;42.606;23.388;2022-12-17T02:38:16;93443.53;;;6.99;100.00
10261;BME280;5175;42.606;23.388;2022-12-17T02:41:01;93437.97;;;6.96;100.00
10261;BME280;5175;42.606;23.388;2022-12-17T02:43:48;93450.69;;;6.99;100.00
10261;BME280;5175;42.606;23.388;2022-12-17T02:46:33;93432.38;;;6.92;100.00
10261;BME280;5175;42.606;23.388;2022-12-17T02:49:18;93441.09;;;6.62;100.00
10261;BME280;5175;42.606;23.388;2022-12-17T02:52:04;93405.88;;;6.82;100.00
10261;BME280;5175;42.606;23.388;2022-12-17T02:54:48;93396.88;;;6.93;100.00
10261;BME280;5175;42.606;23.388;2022-12-17T02:57:32;93417.56;;;7.11;100.00
10261;BME280;5175;42.606;23.388;2022-12-17T03:00:18;93399.47;;;7.43;100.00
10261;BME280;5175;42.606;23.388;2022-12-17T03:03:02;93389.88;;;7.57;100.00
10261;BME280;5175;42.606;23.388;2022-12-17T03:05:46;93395.66;;;7.85;100.00
10261;BME280;5175;42.606;23.388;2022-12-17T03:08:31;93388.63;;;8.19;100.00
10261;BME280;5175;42.606;23.388;2022-12-17T03:11:15;93386.72;;;8.30;100.00
10261;BME280;5175;42.606;23.388;2022-12-17T03:14:00;93394.34;;;8.46;100.00
10261;BME280;5175;42.606;23.388;2022-12-17T03:16:46;93380.25;;;8.46;100.00
10261;BME280;5175;42.606;23.388;2022-12-17T03:19:30;93385.38;;;8.32;100.00
10261;BME280;5175;42.606;23.388;2022-12-17T03:22:14;93382.19;;;8.35;100.00
10261;BME280;5175;42.606;23.388;2022-12-17T03:24:59;93366.03;;;8.27;100.00
10261;BME280;5175;42.606;23.388;2022-12-17T03:27:42;93375.81;;;8.36;100.00
10261;BME280;5175;42.606;23.388;2022-12-17T03:30:27;93350.91;;;8.12;100.00
10261;BME280;5175;42.606;23.388;2022-12-17T03:33:13;93373.72;;;8.23;100.00
10261;BME280;5175;42.606;23.388;2022-12-17T03:35:57;93350.97;;;8.02;100.00
10261;BME280;5175;42.606;23.388;2022-12-17T03:38:41;93363.75;;;7.95;100.00
10261;BME280;5175;42.606;23.388;2022-12-17T03:41:26;93370.66;;;7.96;100.00
10261;BME280;5175;42.606;23.388;2022-12-17T03:44:11;93384.22;;;7.84;100.00
10261;BME280;5175;42.606;23.388;2022-12-17T03:46:55;93384.28;;;7.69;100.00
10261;BME280;5175;42.606;23.388;2022-12-17T03:49:41;93402.91;;;7.59;100.00
10261;BME280;5175;42.606;23.388;2022-12-17T03:52:25;93403.44;;;7.51;100.00
10261;BME280;5175;42.606;23.388;2022-12-17T03:55:10;93391.00;;;7.31;100.00
10261;BME280;5175;42.606;23.388;2022-12-17T03:57:54;93384.63;;;7.27;100.00
10261;BME280;5175;42.606;23.388;2022-12-17T04:00:39;93385.44;;;7.28;100.00
10261;BME280;5175;42.606;23.388;2022-12-17T04:03:23;93393.13;;;7.14;100.00
10261;BME280;5175;42.606;23.388;2022-12-17T04:06:09;93392.59;;;7.12;100.00
10261;BME280;5175;42.606;23.388;2022-12-17T04:08:53;93383.34;;;6.94;100.00
10261;BME280;5175;42.606;23.388;2022-12-17T04:11:38;93393.13;;;6.94;100.00
10261;BME280;5175;42.606;23.388;2022-12-17T04:14:22;93392.09;;;6.95;100.00
10261;BME280;5175;42.606;23.388;2022-12-17T04:17:09;93391.81;;;6.76;100.00
10261;BME280;5175;42.606;23.388;2022-12-17T04:19:53;93419.41;;;6.85;100.00
10261;BME280;5175;42.606;23.388;2022-12-17T04:22:39;93428.41;;;6.79;100.00
10261;BME280;5175;42.606;23.388;2022-12-17T04:25:23;93428.69;;;6.83;100.00
10261;BME280;5175;42.606;23.388;2022-12-17T04:28:07;93410.09;;;6.78;100.00
10261;BME280;5175;42.606;23.388;2022-12-17T04:31:06;93403.44;;;6.70;100.00
10261;BME280;5175;42.606;23.388;2022-12-17T04:34:05;93411.16;;;6.77;100.00
10261;BME280;5175;42.606;23.388;2022-12-17T04:36:50;93401.88;;;6.79;100.00
10261;BME280;5175;42.606;23.388;2022-12-17T04:39:35;93392.09;;;6.70;100.00
10261;BME280;5175;42.606;23.388;2022-12-17T04:42:20;93409.00;;;6.49;100.00
10261;BME280;5175;42.606;23.388;2022-12-17T04:45:05;93420.16;;;6.66;100.00
10261;BME280;5175;42.606;23.388;2022-12-17T04:47:49;93431.03;;;6.64;100.00
10261;BME280;5175;42.606;23.388;2022-12-17T04:50:33;93440.84;;;6.74;100.00
10261;BME280;5175;42.606;23.388;2022-12-17T04:53:17;93448.81;;;6.79;100.00
10261;BME280;5175;42.606;23.388;2022-12-17T04:56:03;93446.97;;;6.84;100.00
10261;BME280;5175;42.606;23.388;2022-12-17T04:58:48;93444.03;;;6.91;100.00
10261;BME280;5175;42.606;23.388;2022-12-17T05:01:32;93436.09;;;6.91;100.00
10261;BME280;5175;42.606;23.388;2022-12-17T05:04:17;93466.59;;;7.04;100.00
10261;BME280;5175;42.606;23.388;2022-12-17T05:07:01;93422.81;;;6.71;100.00
10261;BME280;5175;42.606;23.388;2022-12-17T05:09:46;93477.19;;;6.93;100.00
10261;BME280;5175;42.606;23.388;2022-12-17T05:12:32;93455.94;;;6.73;100.00
10261;BME280;5175;42.606;23.388;2022-12-17T05:15:16;93460.75;;;6.86;100.00
10261;BME280;5175;42.606;23.388;2022-12-17T05:18:05;93472.44;;;7.01;100.00
10261;BME280;5175;42.606;23.388;2022-12-17T05:20:49;93501.63;;;6.96;100.00
10261;BME280;5175;42.606;23.388;2022-12-17T05:23:45;93499.22;;;6.99;100.00
10261;BME280;5175;42.606;23.388;2022-12-17T05:26:30;93480.41;;;7.06;100.00
10261;BME280;5175;42.606;23.388;2022-12-17T05:29:15;93505.31;;;7.00;100.00
10261;BME280;5175;42.606;23.388;2022-12-17T05:31:59;93483.06;;;7.16;100.00
10261;BME280;5175;42.606;23.388;2022-12-17T05:34:44;93483.31;;;7.04;100.00
10261;BME280;5175;42.606;23.388;2022-12-17T05:37:28;93495.78;;;7.04;100.00
10261;BME280;5175;42.606;23.388;2022-12-17T05:40:13;93505.84;;;7.02;100.00
10261;BME280;5175;42.606;23.388;2022-12-17T05:42:59;93487.00;;;6.83;100.00
10261;BME280;5175;42.606;23.388;2022-12-17T05:45:46;93494.16;;;6.82;100.00
10261;BME280;5175;42.606;23.388;2022-12-17T05:48:31;93483.56;;;6.87;100.00
10261;BME280;5175;42.606;23.388;2022-12-17T05:51:16;93485.94;;;6.89;100.00
10261;BME280;5175;42.606;23.388;2022-12-17T05:54:00;93482.22;;;6.70;100.00
10261;BME280;5175;42.606;23.388;2022-12-17T05:56:44;93472.63;;;6.59;100.00
10261;BME280;5175;42.606;23.388;2022-12-17T05:59:29;93479.25;;;6.61;100.00
10261;BME280;5175;42.606;23.388;2022-12-17T06:02:14;93471.59;;;6.65;100.00
10261;BME280;5175;42.606;23.388;2022-12-17T06:04:58;93460.75;;;6.86;100.00
10261;BME280;5175;42.606;23.388;2022-12-17T06:07:43;93471.13;;;6.93;100.00
10261;BME280;5175;42.606;23.388;2022-12-17T06:10:27;93448.31;;;6.97;100.00
10261;BME280;5175;42.606;23.388;2022-12-17T06:13:11;93462.09;;;6.99;100.00
10261;BME280;5175;42.606;23.388;2022-12-17T06:15:56;93453.59;;;6.97;100.00
10261;BME280;5175;42.606;23.388;2022-12-17T06:18:41;93466.34;;;7.05;100.00
10261;BME280;5175;42.606;23.388;2022-12-17T06:21:37;93481.47;;;7.00;100.00
10261;BME280;5175;42.606;23.388;2022-12-17T06:24:21;93489.69;;;7.18;100.00
10261;BME280;5175;42.606;23.388;2022-12-17T06:27:05;93497.91;;;7.07;100.00
10261;BME280;5175;42.606;23.388;2022-12-17T06:29:50;93531.88;;;7.20;100.00
10261;BME280;5175;42.606;23.388;2022-12-17T06:32:34;93521.25;;;7.15;100.00
10261;BME280;5175;42.606;23.388;2022-12-17T06:35:20;93529.50;;;7.23;100.00
10261;BME280;5175;42.606;23.388;2022-12-17T06:38:05;93526.84;;;7.28;100.00
10261;BME280;5175;42.606;23.388;2022-12-17T06:40:50;93535.88;;;7.32;100.00
10261;BME280;5175;42.606;23.388;2022-12-17T06:43:34;93546.75;;;7.41;100.00
10261;BME280;5175;42.606;23.388;2022-12-17T06:46:19;93561.38;;;7.48;100.00
10261;BME280;5175;42.606;23.388;2022-12-17T06:49:03;93553.13;;;7.60;100.00
10261;BME280;5175;42.606;23.388;2022-12-17T06:51:49;93555.00;;;7.85;100.00
10261;BME280;5175;42.606;23.388;2022-12-17T06:54:33;93547.03;;;7.95;100.00
10261;BME280;5175;42.606;23.388;2022-12-17T06:57:17;93544.88;;;8.02;100.00
10261;BME280;5175;42.606;23.388;2022-12-17T07:00:03;93535.84;;;8.13;100.00
10261;BME280;5175;42.606;23.388;2022-12-17T07:02:47;93555.75;;;8.20;100.00
10261;BME280;5175;42.606;23.388;2022-12-17T07:05:32;93583.91;;;8.47;100.00
10261;BME280;5175;42.606;23.388;2022-12-17T07:08:18;93570.59;;;8.47;100.00
10261;BME280;5175;42.606;23.388;2022-12-17T07:11:02;93589.69;;;8.69;100.00
10261;BME280;5175;42.606;23.388;2022-12-17T07:13:46;93609.63;;;8.71;100.00
10261;BME280;5175;42.606;23.388;2022-12-17T07:16:31;93659.88;;;8.68;100.00
10261;BME280;5175;42.606;23.388;2022-12-17T07:19:15;93728.72;;;9.00;100.00
10261;BME280;5175;42.606;23.388;2022-12-17T07:22:00;93738.28;;;9.11;100.00
10261;BME280;5175;42.606;23.388;2022-12-17T07:24:45;93729.97;;;9.27;100.00
10261;BME280;5175;42.606;23.388;2022-12-17T07:27:29;93735.53;;;9.36;100.00
10261;BME280;5175;42.606;23.388;2022-12-17T07:30:14;93707.81;;;9.47;100.00
10261;BME280;5175;42.606;23.388;2022-12-17T07:32:58;93697.13;;;9.52;100.00
10261;BME280;5175;42.606;23.388;2022-12-17T07:35:43;93676.59;;;9.63;100.00
10261;BME280;5175;42.606;23.388;2022-12-17T07:38:27;93678.63;;;9.76;100.00
10261;BME280;5175;42.606;23.388;2022-12-17T07:41:13;93696.97;;;9.82;100.00
10261;BME280;5175;42.606;23.388;2022-12-17T07:43:58;93741.25;;;9.78;100.00
10261;BME280;5175;42.606;23.388;2022-12-17T07:46:42;93722.09;;;9.66;100.00
10261;BME280;5175;42.606;23.388;2022-12-17T07:49:26;93691.72;;;10.16;100.00
10261;BME280;5175;42.606;23.388;2022-12-17T07:52:11;93697.56;;;11.33;100.00
10261;BME280;5175;42.606;23.388;2022-12-17T07:54:55;93659.50;;;11.65;100.00
10261;BME280;5175;42.606;23.388;2022-12-17T07:57:41;93649.22;;;12.14;100.00
10261;BME280;5175;42.606;23.388;2022-12-17T08:00:25;93606.28;;;12.38;100.00
10261;BME280;5175;42.606;23.388;2022-12-17T08:03:10;93587.38;;;12.48;100.00
10261;BME280;5175;42.606;23.388;2022-12-17T08:05:56;93620.69;;;13.01;100.00
10261;BME280;5175;42.606;23.388;2022-12-17T08:08:40;93613.34;;;13.48;100.00
10261;BME280;5175;42.606;23.388;2022-12-17T08:11:25;93656.09;;;13.66;100.00
10261;BME280;5175;42.606;23.388;2022-12-17T08:14:11;93610.28;;;13.90;100.00
10261;BME280;5175;42.606;23.388;2022-12-17T08:16:55;93618.69;;;13.97;100.00
10261;BME280;5175;42.606;23.388;2022-12-17T08:19:39;93561.59;;;13.97;100.00
10261;BME280;5175;42.606;23.388;2022-12-17T08:22:24;93572.38;;;14.05;100.00
10261;BME280;5175;42.606;23.388;2022-12-17T08:25:09;93571.34;;;14.15;100.00
10261;BME280;5175;42.606;23.388;2022-12-17T08:27:55;93620.97;;;14.26;100.00
10261;BME280;5175;42.606;23.388;2022-12-17T08:30:40;93632.38;;;14.45;100.00
10261;BME280;5175;42.606;23.388;2022-12-17T08:33:25;93590.44;;;14.35;100.00
10261;BME280;5175;42.606;23.388;2022-12-17T08:36:09;93597.88;;;14.61;100.00
10261;BME280;5175;42.606;23.388;2022-12-17T08:38:54;93609.72;;;14.90;100.00
10261;BME280;5175;42.606;23.388;2022-12-17T08:41:38;93597.34;;;15.20;100.00
10261;BME280;5175;42.606;23.388;2022-12-17T08:44:22;93603.59;;;15.38;100.00
10261;BME280;5175;42.606;23.388;2022-12-17T08:47:08;93640.38;;;15.59;100.00
10261;BME280;5175;42.606;23.388;2022-12-17T08:49:52;93620.47;;;15.78;100.00
10261;BME280;5175;42.606;23.388;2022-12-17T08:52:37;93626.81;;;15.90;100.00
10261;BME280;5175;42.606;23.388;2022-12-17T08:55:21;93580.56;;;15.62;100.00
10261;BME280;5175;42.606;23.388;2022-12-17T08:58:07;93679.41;;;16.22;94.96
10261;BME280;5175;42.606;23.388;2022-12-17T09:00:51;93721.72;;;16.30;95.19
10261;BME280;5175;42.606;23.388;2022-12-17T09:03:37;93741.81;;;16.24;98.17
10261;BME280;5175;42.606;23.388;2022-12-17T09:06:21;93736.03;;;16.00;100.00
10261;BME280;5175;42.606;23.388;2022-12-17T09:09:05;93728.53;;;15.40;100.00
10261;BME280;5175;42.606;23.388;2022-12-17T09:11:50;93739.41;;;15.35;100.00
10261;BME280;5175;42.606;23.388;2022-12-17T09:14:34;93738.41;;;15.23;100.00
10261;BME280;5175;42.606;23.388;2022-12-17T09:17:18;93734.38;;;15.12;100.00
10261;BME280;5175;42.606;23.388;2022-12-17T09:20:04;93746.09;;;15.16;100.00
10261;BME280;5175;42.606;23.388;2022-12-17T09:22:49;93733.09;;;15.09;100.00
10261;BME280;5175;42.606;23.388;2022-12-17T09:25:33;93749.47;;;14.77;100.00
10261;BME280;5175;42.606;23.388;2022-12-17T09:28:17;93744.19;;;14.50;100.00
10261;BME280;5175;42.606;23.388;2022-12-17T09:31:01;93759.59;;;14.58;100.00
10261;BME280;5175;42.606;23.388;2022-12-17T09:33:46;93732.25;;;14.56;100.00
10261;BME280;5175;42.606;23.388;2022-12-17T09:36:31;93715.09;;;14.29;100.00
10261;BME280;5175;42.606;23.388;2022-12-17T09:39:16;93742.53;;;14.40;100.00
10261;BME280;5175;42.606;23.388;2022-12-17T09:42:07;93744.84;;;14.19;100.00
10261;BME280;5175;42.606;23.388;2022-12-17T09:45:00;93756.38;;;14.06;100.00
10261;BME280;5175;42.606;23.388;2022-12-17T09:47:53;93745.28;;;13.86;100.00
10261;BME280;5175;42.606;23.388;2022-12-17T09:50:41;93780.41;;;13.84;100.00
10261;BME280;5175;42.606;23.388;2022-12-17T09:53:33;93745.59;;;13.70;100.00
10261;BME280;5175;42.606;23.388;2022-12-17T09:56:20;93756.00;;;13.58;100.00
10261;BME280;5175;42.606;23.388;2022-12-17T09:59:06;93743.97;;;13.42;100.00
10261;BME280;5175;42.606;23.388;2022-12-17T10:01:50;93747.66;;;13.46;100.00
10261;BME280;5175;42.606;23.388;2022-12-17T10:04:37;93750.22;;;13.38;100.00
10261;BME280;5175;42.606;23.388;2022-12-17T10:07:24;93745.94;;;13.23;100.00
10261;BME280;5175;42.606;23.388;2022-12-17T10:10:17;93724.00;;;13.21;100.00
10261;BME280;5175;42.606;23.388;2022-12-17T10:13:10;93698.03;;;13.03;100.00
10261;BME280;5175;42.606;23.388;2022-12-17T10:15:54;93703.97;;;13.00;100.00
10261;BME280;5175;42.606;23.388;2022-12-17T10:18:38;93707.22;;;13.15;100.00
10261;BME280;5175;42.606;23.388;2022-12-17T10:21:22;93743.88;;;13.01;100.00
10261;BME280;5175;42.606;23.388;2022-12-17T10:24:08;93764.44;;;12.87;100.00
10261;BME280;5175;42.606;23.388;2022-12-17T10:26:54;93763.31;;;12.75;100.00
10261;BME280;5175;42.606;23.388;2022-12-17T10:29:41;93749.78;;;12.85;100.00
10261;BME280;5175;42.606;23.388;2022-12-17T10:32:26;93780.53;;;12.69;100.00
10261;BME280;5175;42.606;23.388;2022-12-17T10:35:16;93772.16;;;12.19;100.00
10261;BME280;5175;42.606;23.388;2022-12-17T10:38:09;93805.22;;;12.28;100.00
10261;BME280;5175;42.606;23.388;2022-12-17T10:40:53;93810.75;;;12.13;100.00
10261;BME280;5175;42.606;23.388;2022-12-17T10:43:40;93793.84;;;12.18;100.00
10261;BME280;5175;42.606;23.388;2022-12-17T10:46:25;93765.56;;;11.93;100.00
10261;BME280;5175;42.606;23.388;2022-12-17T10:49:12;93758.72;;;11.82;100.00
10261;BME280;5175;42.606;23.388;2022-12-17T10:52:01;93763.75;;;11.88;100.00
10261;BME280;5175;42.606;23.388;2022-12-17T10:54:56;93755.72;;;11.88;100.00
10261;BME280;5175;42.606;23.388;2022-12-17T10:57:41;93756.28;;;11.85;100.00
10261;BME280;5175;42.606;23.388;2022-12-17T11:00:29;93768.50;;;11.68;100.00
10261;BME280;5175;42.606;23.388;2022-12-17T11:03:26;93737.22;;;11.92;100.00
10261;BME280;5175;42.606;23.388;2022-12-17T11:06:11;93697.78;;;12.21;100.00
10261;BME280;5175;42.606;23.388;2022-12-17T11:08:59;93701.75;;;12.42;100.00
10261;BME280;5175;42.606;23.388;2022-12-17T11:11:45;93715.00;;;12.66;100.00
10261;BME280;5175;42.606;23.388;2022-12-17T11:14:31;93715.34;;;12.78;100.00
10261;BME280;5175;42.606;23.388;2022-12-17T11:17:19;93743.25;;;12.91;100.00
10261;BME280;5175;42.606;23.388;2022-12-17T11:20:07;93743.63;;;12.84;100.00
10261;BME280;5175;42.606;23.388;2022-12-17T11:23:03;93748.19;;;12.84;100.00
10261;BME280;5175;42.606;23.388;2022-12-17T11:25:53;93728.56;;;12.88;100.00
10261;BME280;5175;42.606;23.388;2022-12-17T11:28:39;93728.47;;;13.12;100.00
10261;BME280;5175;42.606;23.388;2022-12-17T11:31:34;93733.81;;;12.61;100.00
10261;BME280;5175;42.606;23.388;2022-12-17T11:34:28;93727.78;;;12.55;100.00
10261;BME280;5175;42.606;23.388;2022-12-17T11:37:17;93727.47;;;12.89;100.00
10261;BME280;5175;42.606;23.388;2022-12-17T11:40:14;93730.34;;;13.11;100.00
10261;BME280;5175;42.606;23.388;2022-12-17T11:43:02;93730.19;;;13.35;100.00
10261;BME280;5175;42.606;23.388;2022-12-17T11:45:54;93748.72;;;13.32;100.00
10261;BME280;5175;42.606;23.388;2022-12-17T11:48:45;93754.28;;;13.22;100.00
10261;BME280;5175;42.606;23.388;2022-12-17T11:51:38;93771.56;;;13.29;100.00
10261;BME280;5175;42.606;23.388;2022-12-17T11:54:28;93771.94;;;13.36;100.00
10261;BME280;5175;42.606;23.388;2022-12-17T11:57:20;93755.84;;;12.90;100.00
10261;BME280;5175;42.606;23.388;2022-12-17T12:00:15;93779.34;;;12.93;100.00
10261;BME280;5175;42.606;23.388;2022-12-17T12:03:12;93798.47;;;12.87;100.00
10261;BME280;5175;42.606;23.388;2022-12-17T12:06:07;93797.81;;;12.95;100.00
10261;BME280;5175;42.606;23.388;2022-12-17T12:09:02;93788.47;;;12.92;100.00
10261;BME280;5175;42.606;23.388;2022-12-17T12:11:52;93778.78;;;12.96;100.00
10261;BME280;5175;42.606;23.388;2022-12-17T12:14:48;93793.75;;;12.97;100.00
10261;BME280;5175;42.606;23.388;2022-12-17T12:17:42;93807.28;;;12.87;100.00
10261;BME280;5175;42.606;23.388;2022-12-17T12:20:44;93800.50;;;12.76;100.00
10261;BME280;5175;42.606;23.388;2022-12-17T12:23:46;93797.25;;;12.79;100.00
10261;BME280;5175;42.606;23.388;2022-12-17T12:26:40;93774.91;;;12.51;100.00
10261;BME280;5175;42.606;23.388;2022-12-17T12:29:35;93784.88;;;12.65;100.00
10261;BME280;5175;42.606;23.388;2022-12-17T12:32:27;93752.25;;;12.81;100.00
10261;BME280;5175;42.606;23.388;2022-12-17T12:35:20;93778.88;;;13.05;100.00
10261;BME280;5175;42.606;23.388;2022-12-17T12:38:10;93769.16;;;13.28;100.00
10261;BME280;5175;42.606;23.388;2022-12-17T12:41:05;93775.69;;;13.22;100.00
10261;BME280;5175;42.606;23.388;2022-12-17T12:43:58;93756.25;;;13.16;100.00
10261;BME280;5175;42.606;23.388;2022-12-17T12:46:44;93772.00;;;13.17;100.00
10261;BME280;5175;42.606;23.388;2022-12-17T12:49:34;93740.97;;;13.16;100.00
10261;BME280;5175;42.606;23.388;2022-12-17T12:52:23;93750.28;;;13.19;100.00
10261;BME280;5175;42.606;23.388;2022-12-17T12:55:10;93747.00;;;13.08;100.00
10261;BME280;5175;42.606;23.388;2022-12-17T12:57:57;93781.88;;;13.22;100.00
10261;BME280;5175;42.606;23.388;2022-12-17T13:00:53;93754.13;;;13.13;100.00
10261;BME280;5175;42.606;23.388;2022-12-17T13:03:39;93760.59;;;13.12;100.00
10261;BME280;5175;42.606;23.388;2022-12-17T13:06:42;93761.09;;;13.28;100.00
10261;BME280;5175;42.606;23.388;2022-12-17T13:09:21;93760.75;;;13.34;100.00
10261;BME280;5175;42.606;23.388;2022-12-17T13:11:54;93741.06;;;13.11;100.00
10261;BME280;5175;42.606;23.388;2022-12-17T13:14:25;93759.00;;;13.11;100.00
10261;BME280;5175;42.606;23.388;2022-12-17T13:16:57;93769.28;;;13.04;100.00
10261;BME280;5175;42.606;23.388;2022-12-17T13:19:36;93774.78;;;13.12;100.00
10261;BME280;5175;42.606;23.388;2022-12-17T13:22:26;93777.69;;;12.97;100.00
10261;BME280;5175;42.606;23.388;2022-12-17T13:24:54;93771.69;;;12.87;100.00
10261;BME280;5175;42.606;23.388;2022-12-17T13:27:27;93777.59;;;12.70;100.00
10261;BME280;5175;42.606;23.388;2022-12-17T13:29:54;93787.56;;;12.65;100.00
10261;BME280;5175;42.606;23.388;2022-12-17T13:32:27;93795.69;;;12.60;100.00
10261;BME280;5175;42.606;23.388;2022-12-17T13:35:04;93798.44;;;12.73;100.00
10261;BME280;5175;42.606;23.388;2022-12-17T13:37:41;93802.31;;;12.62;100.00
10261;BME280;5175;42.606;23.388;2022-12-17T13:40:29;93780.06;;;12.29;100.00
10261;BME280;5175;42.606;23.388;2022-12-17T13:42:58;93805.44;;;12.32;100.00
10261;BME280;5175;42.606;23.388;2022-12-17T13:45:25;93805.38;;;12.37;100.00
10261;BME280;5175;42.606;23.388;2022-12-17T13:47:56;93792.47;;;12.20;100.00
10261;BME280;5175;42.606;23.388;2022-12-17T13:50:26;93792.53;;;12.15;100.00
10261;BME280;5175;42.606;23.388;2022-12-17T13:52:53;93790.72;;;12.11;100.00
10261;BME280;5175;42.606;23.388;2022-12-17T13:55:23;93797.63;;;12.17;100.00
10261;BME280;5175;42.606;23.388;2022-12-17T13:57:51;93799.13;;;12.04;100.00
10261;BME280;5175;42.606;23.388;2022-12-17T14:00:20;93795.06;;;12.07;100.00
10261;BME280;5175;42.606;23.388;2022-12-17T14:02:47;93804.84;;;12.16;100.00
10261;BME280;5175;42.606;23.388;2022-12-17T14:05:24;93818.72;;;12.18;100.00
10261;BME280;5175;42.606;23.388;2022-12-17T14:07:51;93822.09;;;12.05;100.00
10261;BME280;5175;42.606;23.388;2022-12-17T14:10:19;93832.22;;;12.08;100.00
10261;BME280;5175;42.606;23.388;2022-12-17T14:12:46;93832.78;;;12.05;100.00
10261;BME280;5175;42.606;23.388;2022-12-17T14:15:19;93826.31;;;11.87;100.00
10261;BME280;5175;42.606;23.388;2022-12-17T14:17:48;93818.72;;;11.94;100.00
10261;BME280;5175;42.606;23.388;2022-12-17T14:20:17;93826.00;;;11.65;100.00
10261;BME280;5175;42.606;23.388;2022-12-17T14:22:49;93820.34;;;11.72;100.00
10261;BME280;5175;42.606;23.388;2022-12-17T14:25:19;93829.50;;;11.89;100.00
10261;BME280;5175;42.606;23.388;2022-12-17T14:27:54;93838.94;;;12.06;100.00
10261;BME280;5175;42.606;23.388;2022-12-17T14:30:24;93836.94;;;11.92;100.00
10261;BME280;5175;42.606;23.388;2022-12-17T14:32:55;93836.56;;;11.80;100.00